sensor_id;sensor_type;location;lat;lon;timestamp;temperature;humidity
6270;DHT22;3168;51.684;6.954;2023-05-16T00:02:01;10.20;81.60
6270;DHT22;3168;51.684;6.954;2023-05-16T00:04:27;10.30;83.60
6270;DHT22;3168;51.684;6.954;2023-05-16T00:06:53;10.20;72.80
6270;DHT22;3168;51.684;6.954;2023-05-16T00:09:19;10.10;65.30
6270;DHT22;3168;51.684;6.954;2023-05-16T00:11:45;10.00;60.70
6270;DHT22;3168;51.684;6.954;2023-05-16T00:14:11;10.10;61.20
6270;DHT22;3168;51.684;6.954;2023-05-16T00:16:37;10.20;64.50
6270;DHT22;3168;51.684;6.954;2023-05-16T00:19:03;10.20;60.40
6270;DHT22;3168;51.684;6.954;2023-05-16T00:21:28;10.10;51.90
6270;DHT22;3168;51.684;6.954;2023-05-16T00:23:54;10.00;55.90
6270;DHT22;3168;51.684;6.954;2023-05-16T00:26:20;9.90;51.10
6270;DHT22;3168;51.684;6.954;2023-05-16T00:28:46;9.90;52.40
6270;DHT22;3168;51.684;6.954;2023-05-16T00:31:12;9.90;54.20
6270;DHT22;3168;51.684;6.954;2023-05-16T00:33:38;9.90;52.70
6270;DHT22;3168;51.684;6.954;2023-05-16T00:36:04;9.80;38.80
6270;DHT22;3168;51.684;6.954;2023-05-16T00:38:30;9.80;34.20
6270;DHT22;3168;51.684;6.954;2023-05-16T00:40:56;9.80;29.20
6270;DHT22;3168;51.684;6.954;2023-05-16T00:43:22;9.70;25.30
6270;DHT22;3168;51.684;6.954;2023-05-16T00:45:48;9.70;25.50
6270;DHT22;3168;51.684;6.954;2023-05-16T00:48:14;9.50;21.50
6270;DHT22;3168;51.684;6.954;2023-05-16T00:50:41;9.50;26.50
6270;DHT22;3168;51.684;6.954;2023-05-16T00:53:06;9.50;26.50
6270;DHT22;3168;51.684;6.954;2023-05-16T00:55:32;9.50;22.00
6270;DHT22;3168;51.684;6.954;2023-05-16T00:57:58;9.40;9.50
6270;DHT22;3168;51.684;6.954;2023-05-16T01:00:24;9.40;12.30
6270;DHT22;3168;51.684;6.954;2023-05-16T01:02:50;9.40;15.00
6270;DHT22;3168;51.684;6.954;2023-05-16T01:05:16;9.30;15.90
6270;DHT22;3168;51.684;6.954;2023-05-16T01:07:42;9.40;17.90
6270;DHT22;3168;51.684;6.954;2023-05-16T01:10:08;9.40;17.50
6270;DHT22;3168;51.684;6.954;2023-05-16T01:12:37;9.30;13.50
6270;DHT22;3168;51.684;6.954;2023-05-16T01:15:08;9.40;15.20
6270;DHT22;3168;51.684;6.954;2023-05-16T01:17:39;9.30;9.70
6270;DHT22;3168;51.684;6.954;2023-05-16T01:20:12;9.30;5.20
6270;DHT22;3168;51.684;6.954;2023-05-16T01:24:08;9.30;8.30
6270;DHT22;3168;51.684;6.954;2023-05-16T01:28:30;9.20;1.20
6270;DHT22;3168;51.684;6.954;2023-05-16T01:30:56;9.20;1.20
6270;DHT22;3168;51.684;6.954;2023-05-16T01:33:21;9.30;3.80
6270;DHT22;3168;51.684;6.954;2023-05-16T01:35:54;9.30;4.30
6270;DHT22;3168;51.684;6.954;2023-05-16T01:38:24;9.20;1.00
6270;DHT22;3168;51.684;6.954;2023-05-16T01:40:53;9.20;1.00
6270;DHT22;3168;51.684;6.954;2023-05-16T01:43:20;9.20;1.00
6270;DHT22;3168;51.684;6.954;2023-05-16T01:45:50;9.20;1.00
6270;DHT22;3168;51.684;6.954;2023-05-16T01:48:15;9.30;1.00
6270;DHT22;3168;51.684;6.954;2023-05-16T01:50:41;9.30;1.00
6270;DHT22;3168;51.684;6.954;2023-05-16T01:53:06;9.50;1.00
6270;DHT22;3168;51.684;6.954;2023-05-16T01:55:42;9.50;1.00
6270;DHT22;3168;51.684;6.954;2023-05-16T01:58:07;9.40;1.00
6270;DHT22;3168;51.684;6.954;2023-05-16T02:00:33;9.40;1.00
6270;DHT22;3168;51.684;6.954;2023-05-16T02:02:59;9.30;1.00
6270;DHT22;3168;51.684;6.954;2023-05-16T02:05:25;9.30;1.00
6270;DHT22;3168;51.684;6.954;2023-05-16T02:07:51;9.40;1.00
6270;DHT22;3168;51.684;6.954;2023-05-16T02:10:16;9.30;1.00
6270;DHT22;3168;51.684;6.954;2023-05-16T02:12:42;9.40;1.00
6270;DHT22;3168;51.684;6.954;2023-05-16T02:15:09;9.30;1.00
6270;DHT22;3168;51.684;6.954;2023-05-16T02:17:35;9.30;1.00
6270;DHT22;3168;51.684;6.954;2023-05-16T02:20:02;9.10;1.00
6270;DHT22;3168;51.684;6.954;2023-05-16T02:22:28;9.10;1.00
6270;DHT22;3168;51.684;6.954;2023-05-16T02:24:54;9.10;1.00
6270;DHT22;3168;51.684;6.954;2023-05-16T02:27:20;9.10;1.00
6270;DHT22;3168;51.684;6.954;2023-05-16T02:29:46;9.00;1.00
6270;DHT22;3168;51.684;6.954;2023-05-16T02:32:11;9.00;1.00
6270;DHT22;3168;51.684;6.954;2023-05-16T02:34:37;9.10;1.00
6270;DHT22;3168;51.684;6.954;2023-05-16T02:37:04;9.00;1.00
6270;DHT22;3168;51.684;6.954;2023-05-16T02:39:29;9.10;1.00
6270;DHT22;3168;51.684;6.954;2023-05-16T02:41:55;9.00;1.00
6270;DHT22;3168;51.684;6.954;2023-05-16T02:44:21;9.00;1.00
6270;DHT22;3168;51.684;6.954;2023-05-16T02:46:47;9.00;1.00
6270;DHT22;3168;51.684;6.954;2023-05-16T02:49:13;8.80;1.00
6270;DHT22;3168;51.684;6.954;2023-05-16T02:51:39;8.80;1.00
6270;DHT22;3168;51.684;6.954;2023-05-16T02:54:06;8.80;1.00
6270;DHT22;3168;51.684;6.954;2023-05-16T02:56:32;8.80;1.00
6270;DHT22;3168;51.684;6.954;2023-05-16T02:58:58;8.80;1.00
6270;DHT22;3168;51.684;6.954;2023-05-16T03:01:24;8.80;1.00
6270;DHT22;3168;51.684;6.954;2023-05-16T03:03:50;8.70;1.00
6270;DHT22;3168;51.684;6.954;2023-05-16T03:06:16;8.70;1.00
6270;DHT22;3168;51.684;6.954;2023-05-16T03:08:42;8.70;1.00
6270;DHT22;3168;51.684;6.954;2023-05-16T03:11:08;8.70;1.00
6270;DHT22;3168;51.684;6.954;2023-05-16T03:13:33;8.70;1.00
6270;DHT22;3168;51.684;6.954;2023-05-16T03:15:59;8.70;1.00
6270;DHT22;3168;51.684;6.954;2023-05-16T03:18:25;8.60;1.00
6270;DHT22;3168;51.684;6.954;2023-05-16T03:20:51;8.60;1.00
6270;DHT22;3168;51.684;6.954;2023-05-16T03:23:19;8.60;1.00
6270;DHT22;3168;51.684;6.954;2023-05-16T03:25:45;8.60;1.00
6270;DHT22;3168;51.684;6.954;2023-05-16T03:28:10;8.50;1.00
6270;DHT22;3168;51.684;6.954;2023-05-16T03:30:36;8.50;1.00
6270;DHT22;3168;51.684;6.954;2023-05-16T03:33:02;8.50;1.00
6270;DHT22;3168;51.684;6.954;2023-05-16T03:35:30;8.30;1.00
6270;DHT22;3168;51.684;6.954;2023-05-16T03:37:56;8.30;1.00
6270;DHT22;3168;51.684;6.954;2023-05-16T03:40:22;8.30;1.00
6270;DHT22;3168;51.684;6.954;2023-05-16T03:42:48;8.20;1.00
6270;DHT22;3168;51.684;6.954;2023-05-16T03:45:14;8.10;1.00
6270;DHT22;3168;51.684;6.954;2023-05-16T03:47:40;8.10;1.00
6270;DHT22;3168;51.684;6.954;2023-05-16T03:50:07;8.00;1.00
6270;DHT22;3168;51.684;6.954;2023-05-16T03:52:34;8.00;1.00
6270;DHT22;3168;51.684;6.954;2023-05-16T03:54:59;8.10;1.00
6270;DHT22;3168;51.684;6.954;2023-05-16T03:57:25;8.00;1.00
6270;DHT22;3168;51.684;6.954;2023-05-16T03:59:51;8.00;1.00
6270;DHT22;3168;51.684;6.954;2023-05-16T04:02:17;8.00;1.00
6270;DHT22;3168;51.684;6.954;2023-05-16T04:04:43;8.00;1.00
6270;DHT22;3168;51.684;6.954;2023-05-16T04:07:10;8.00;1.00
6270;DHT22;3168;51.684;6.954;2023-05-16T04:09:35;7.90;1.00
6270;DHT22;3168;51.684;6.954;2023-05-16T04:12:01;8.00;1.00
6270;DHT22;3168;51.684;6.954;2023-05-16T04:14:27;8.00;1.00
6270;DHT22;3168;51.684;6.954;2023-05-16T04:16:53;8.00;1.00
6270;DHT22;3168;51.684;6.954;2023-05-16T04:19:19;8.00;1.00
6270;DHT22;3168;51.684;6.954;2023-05-16T04:21:45;8.00;1.00
6270;DHT22;3168;51.684;6.954;2023-05-16T04:24:11;8.00;1.00
6270;DHT22;3168;51.684;6.954;2023-05-16T04:26:37;8.00;1.00
6270;DHT22;3168;51.684;6.954;2023-05-16T04:29:03;8.00;1.00
6270;DHT22;3168;51.684;6.954;2023-05-16T04:31:29;8.00;1.00
6270;DHT22;3168;51.684;6.954;2023-05-16T04:33:55;8.00;1.00
6270;DHT22;3168;51.684;6.954;2023-05-16T04:36:23;8.00;1.00
6270;DHT22;3168;51.684;6.954;2023-05-16T04:38:49;7.90;1.00
6270;DHT22;3168;51.684;6.954;2023-05-16T04:41:15;7.90;1.00
6270;DHT22;3168;51.684;6.954;2023-05-16T04:43:41;8.00;1.00
6270;DHT22;3168;51.684;6.954;2023-05-16T04:46:07;8.10;1.00
6270;DHT22;3168;51.684;6.954;2023-05-16T04:48:33;8.00;1.00
6270;DHT22;3168;51.684;6.954;2023-05-16T04:50:59;8.00;1.00
6270;DHT22;3168;51.684;6.954;2023-05-16T04:53:24;8.00;1.00
6270;DHT22;3168;51.684;6.954;2023-05-16T04:55:50;8.00;1.00
6270;DHT22;3168;51.684;6.954;2023-05-16T04:58:17;8.00;1.00
6270;DHT22;3168;51.684;6.954;2023-05-16T05:00:43;8.00;1.00
6270;DHT22;3168;51.684;6.954;2023-05-16T05:03:09;8.10;1.00
6270;DHT22;3168;51.684;6.954;2023-05-16T05:05:34;8.20;1.00
6270;DHT22;3168;51.684;6.954;2023-05-16T05:08:00;8.30;1.00
6270;DHT22;3168;51.684;6.954;2023-05-16T05:10:27;8.20;1.00
6270;DHT22;3168;51.684;6.954;2023-05-16T05:12:53;8.20;1.00
6270;DHT22;3168;51.684;6.954;2023-05-16T05:15:19;8.20;1.00
6270;DHT22;3168;51.684;6.954;2023-05-16T05:17:48;8.30;1.00
6270;DHT22;3168;51.684;6.954;2023-05-16T05:20:14;8.30;1.00
6270;DHT22;3168;51.684;6.954;2023-05-16T05:22:39;8.30;1.00
6270;DHT22;3168;51.684;6.954;2023-05-16T05:25:06;8.40;1.00
6270;DHT22;3168;51.684;6.954;2023-05-16T05:27:32;8.50;1.00
6270;DHT22;3168;51.684;6.954;2023-05-16T05:29:58;8.60;1.00
6270;DHT22;3168;51.684;6.954;2023-05-16T05:32:23;8.50;1.00
6270;DHT22;3168;51.684;6.954;2023-05-16T05:34:49;8.40;1.00
6270;DHT22;3168;51.684;6.954;2023-05-16T05:37:15;8.50;1.00
6270;DHT22;3168;51.684;6.954;2023-05-16T05:39:41;8.50;1.00
6270;DHT22;3168;51.684;6.954;2023-05-16T05:42:07;8.50;1.00
6270;DHT22;3168;51.684;6.954;2023-05-16T05:44:33;8.60;1.00
6270;DHT22;3168;51.684;6.954;2023-05-16T05:46:59;8.70;1.00
6270;DHT22;3168;51.684;6.954;2023-05-16T05:49:26;8.70;1.00
6270;DHT22;3168;51.684;6.954;2023-05-16T05:51:52;8.80;1.00
6270;DHT22;3168;51.684;6.954;2023-05-16T05:54:18;8.80;1.00
6270;DHT22;3168;51.684;6.954;2023-05-16T05:56:43;9.00;1.00
6270;DHT22;3168;51.684;6.954;2023-05-16T05:59:09;9.10;1.00
6270;DHT22;3168;51.684;6.954;2023-05-16T06:01:35;9.10;1.00
6270;DHT22;3168;51.684;6.954;2023-05-16T06:04:01;9.30;1.00
6270;DHT22;3168;51.684;6.954;2023-05-16T06:06:26;9.20;1.00
6270;DHT22;3168;51.684;6.954;2023-05-16T06:08:52;9.30;1.00
6270;DHT22;3168;51.684;6.954;2023-05-16T06:11:18;9.40;1.00
6270;DHT22;3168;51.684;6.954;2023-05-16T06:13:44;9.40;1.00
6270;DHT22;3168;51.684;6.954;2023-05-16T06:16:10;9.30;1.00
6270;DHT22;3168;51.684;6.954;2023-05-16T06:18:36;9.40;1.00
6270;DHT22;3168;51.684;6.954;2023-05-16T06:21:03;9.70;1.00
6270;DHT22;3168;51.684;6.954;2023-05-16T06:23:29;9.70;1.00
6270;DHT22;3168;51.684;6.954;2023-05-16T06:25:55;9.60;1.00
6270;DHT22;3168;51.684;6.954;2023-05-16T06:28:20;9.70;1.00
6270;DHT22;3168;51.684;6.954;2023-05-16T06:30:47;9.90;1.00
6270;DHT22;3168;51.684;6.954;2023-05-16T06:33:14;9.90;1.00
6270;DHT22;3168;51.684;6.954;2023-05-16T06:35:39;9.90;1.00
6270;DHT22;3168;51.684;6.954;2023-05-16T06:38:05;9.90;1.00
6270;DHT22;3168;51.684;6.954;2023-05-16T06:40:31;9.80;1.00
6270;DHT22;3168;51.684;6.954;2023-05-16T06:42:57;9.80;1.00
6270;DHT22;3168;51.684;6.954;2023-05-16T06:45:23;9.90;1.00
6270;DHT22;3168;51.684;6.954;2023-05-16T06:47:49;10.00;1.00
6270;DHT22;3168;51.684;6.954;2023-05-16T06:50:14;10.20;1.00
6270;DHT22;3168;51.684;6.954;2023-05-16T06:52:40;10.10;1.00
6270;DHT22;3168;51.684;6.954;2023-05-16T06:55:07;10.30;1.00
6270;DHT22;3168;51.684;6.954;2023-05-16T06:57:33;10.40;1.00
6270;DHT22;3168;51.684;6.954;2023-05-16T06:59:59;10.40;1.00
6270;DHT22;3168;51.684;6.954;2023-05-16T07:02:25;10.30;1.00
6270;DHT22;3168;51.684;6.954;2023-05-16T07:04:51;10.30;1.00
6270;DHT22;3168;51.684;6.954;2023-05-16T07:07:17;10.40;1.00
6270;DHT22;3168;51.684;6.954;2023-05-16T07:09:48;10.70;1.00
6270;DHT22;3168;51.684;6.954;2023-05-16T07:12:14;10.90;1.00
6270;DHT22;3168;51.684;6.954;2023-05-16T07:14:39;10.80;1.00
6270;DHT22;3168;51.684;6.954;2023-05-16T07:17:05;10.80;1.00
6270;DHT22;3168;51.684;6.954;2023-05-16T07:19:31;10.80;1.00
6270;DHT22;3168;51.684;6.954;2023-05-16T07:21:57;11.00;1.00
6270;DHT22;3168;51.684;6.954;2023-05-16T07:24:24;10.90;1.00
6270;DHT22;3168;51.684;6.954;2023-05-16T07:26:50;10.90;1.00
6270;DHT22;3168;51.684;6.954;2023-05-16T07:29:16;10.80;1.00
6270;DHT22;3168;51.684;6.954;2023-05-16T07:31:42;10.90;1.00
6270;DHT22;3168;51.684;6.954;2023-05-16T07:34:09;11.00;1.00
6270;DHT22;3168;51.684;6.954;2023-05-16T07:36:35;10.90;1.00
6270;DHT22;3168;51.684;6.954;2023-05-16T07:39:01;10.90;1.00
6270;DHT22;3168;51.684;6.954;2023-05-16T07:41:27;11.00;1.00
6270;DHT22;3168;51.684;6.954;2023-05-16T07:43:52;11.00;1.00
6270;DHT22;3168;51.684;6.954;2023-05-16T07:46:18;10.90;1.00
6270;DHT22;3168;51.684;6.954;2023-05-16T07:48:44;10.70;1.00
6270;DHT22;3168;51.684;6.954;2023-05-16T07:51:10;10.60;1.00
6270;DHT22;3168;51.684;6.954;2023-05-16T07:53:36;10.70;1.00
6270;DHT22;3168;51.684;6.954;2023-05-16T07:56:02;10.50;1.00
6270;DHT22;3168;51.684;6.954;2023-05-16T07:58:28;10.70;1.00
6270;DHT22;3168;51.684;6.954;2023-05-16T08:00:54;10.80;1.00
6270;DHT22;3168;51.684;6.954;2023-05-16T08:03:20;11.20;1.00
6270;DHT22;3168;51.684;6.954;2023-05-16T08:05:46;11.20;1.00
6270;DHT22;3168;51.684;6.954;2023-05-16T08:08:12;11.30;1.00
6270;DHT22;3168;51.684;6.954;2023-05-16T08:10:37;11.40;1.00
6270;DHT22;3168;51.684;6.954;2023-05-16T08:13:03;11.60;1.00
6270;DHT22;3168;51.684;6.954;2023-05-16T08:15:29;11.60;1.00
6270;DHT22;3168;51.684;6.954;2023-05-16T08:17:56;11.40;1.00
6270;DHT22;3168;51.684;6.954;2023-05-16T08:20:21;11.40;1.00
6270;DHT22;3168;51.684;6.954;2023-05-16T08:22:46;11.50;1.00
6270;DHT22;3168;51.684;6.954;2023-05-16T08:25:12;11.50;1.00
6270;DHT22;3168;51.684;6.954;2023-05-16T08:27:38;11.70;1.00
6270;DHT22;3168;51.684;6.954;2023-05-16T08:30:05;12.00;1.00
6270;DHT22;3168;51.684;6.954;2023-05-16T08:32:31;12.10;1.00
6270;DHT22;3168;51.684;6.954;2023-05-16T08:34:57;12.00;1.00
6270;DHT22;3168;51.684;6.954;2023-05-16T08:37:23;12.30;1.00
6270;DHT22;3168;51.684;6.954;2023-05-16T08:39:48;12.40;1.00
6270;DHT22;3168;51.684;6.954;2023-05-16T08:42:14;12.50;1.00
6270;DHT22;3168;51.684;6.954;2023-05-16T08:44:40;12.30;1.00
6270;DHT22;3168;51.684;6.954;2023-05-16T08:47:11;12.40;1.00
6270;DHT22;3168;51.684;6.954;2023-05-16T08:49:36;12.50;1.00
6270;DHT22;3168;51.684;6.954;2023-05-16T08:52:02;12.40;1.00
6270;DHT22;3168;51.684;6.954;2023-05-16T08:54:28;12.40;1.00
6270;DHT22;3168;51.684;6.954;2023-05-16T08:56:55;12.40;1.00
6270;DHT22;3168;51.684;6.954;2023-05-16T08:59:20;12.30;1.00
6270;DHT22;3168;51.684;6.954;2023-05-16T09:01:46;12.20;1.00
6270;DHT22;3168;51.684;6.954;2023-05-16T09:04:12;12.30;1.00
6270;DHT22;3168;51.684;6.954;2023-05-16T09:06:38;12.50;1.00
6270;DHT22;3168;51.684;6.954;2023-05-16T09:09:03;12.60;1.00
6270;DHT22;3168;51.684;6.954;2023-05-16T09:11:29;12.70;1.00
6270;DHT22;3168;51.684;6.954;2023-05-16T09:13:55;12.90;1.00
6270;DHT22;3168;51.684;6.954;2023-05-16T09:16:21;13.20;1.00
6270;DHT22;3168;51.684;6.954;2023-05-16T09:18:52;13.30;1.00
6270;DHT22;3168;51.684;6.954;2023-05-16T09:21:18;13.00;1.00
6270;DHT22;3168;51.684;6.954;2023-05-16T09:23:43;12.60;1.00
6270;DHT22;3168;51.684;6.954;2023-05-16T09:26:09;12.50;1.00
6270;DHT22;3168;51.684;6.954;2023-05-16T09:28:36;12.70;1.00
6270;DHT22;3168;51.684;6.954;2023-05-16T09:31:02;13.10;1.00
6270;DHT22;3168;51.684;6.954;2023-05-16T09:33:28;13.10;1.00
6270;DHT22;3168;51.684;6.954;2023-05-16T09:35:56;13.00;1.00
6270;DHT22;3168;51.684;6.954;2023-05-16T09:38:21;12.90;1.00
6270;DHT22;3168;51.684;6.954;2023-05-16T09:40:47;13.10;1.00
6270;DHT22;3168;51.684;6.954;2023-05-16T09:43:14;13.20;1.00
6270;DHT22;3168;51.684;6.954;2023-05-16T09:45:39;13.20;1.00
6270;DHT22;3168;51.684;6.954;2023-05-16T09:48:07;13.30;1.00
6270;DHT22;3168;51.684;6.954;2023-05-16T09:50:33;13.30;1.00
6270;DHT22;3168;51.684;6.954;2023-05-16T09:52:58;13.20;1.00
6270;DHT22;3168;51.684;6.954;2023-05-16T09:55:24;13.10;1.00
6270;DHT22;3168;51.684;6.954;2023-05-16T09:57:50;13.10;1.00
6270;DHT22;3168;51.684;6.954;2023-05-16T10:00:21;13.10;1.00
6270;DHT22;3168;51.684;6.954;2023-05-16T10:02:53;13.00;1.00
6270;DHT22;3168;51.684;6.954;2023-05-16T10:05:19;12.90;1.00
6270;DHT22;3168;51.684;6.954;2023-05-16T10:07:44;13.00;1.00
6270;DHT22;3168;51.684;6.954;2023-05-16T10:10:10;13.10;1.00
6270;DHT22;3168;51.684;6.954;2023-05-16T10:12:36;13.10;1.00
6270;DHT22;3168;51.684;6.954;2023-05-16T10:15:03;13.50;1.00
6270;DHT22;3168;51.684;6.954;2023-05-16T10:17:31;13.60;1.00
6270;DHT22;3168;51.684;6.954;2023-05-16T10:19:56;13.80;1.00
6270;DHT22;3168;51.684;6.954;2023-05-16T10:22:22;13.60;1.00
6270;DHT22;3168;51.684;6.954;2023-05-16T10:24:53;13.80;1.00
6270;DHT22;3168;51.684;6.954;2023-05-16T10:27:16;14.10;1.00
6270;DHT22;3168;51.684;6.954;2023-05-16T10:29:43;14.00;1.00
6270;DHT22;3168;51.684;6.954;2023-05-16T10:32:09;14.10;1.00
6270;DHT22;3168;51.684;6.954;2023-05-16T10:34:35;13.60;1.00
6270;DHT22;3168;51.684;6.954;2023-05-16T10:37:02;13.70;1.00
6270;DHT22;3168;51.684;6.954;2023-05-16T10:39:27;14.10;1.00
6270;DHT22;3168;51.684;6.954;2023-05-16T10:41:53;13.90;1.00
6270;DHT22;3168;51.684;6.954;2023-05-16T10:44:20;13.90;1.00
6270;DHT22;3168;51.684;6.954;2023-05-16T10:46:51;13.60;1.00
6270;DHT22;3168;51.684;6.954;2023-05-16T10:49:23;14.00;1.00
6270;DHT22;3168;51.684;6.954;2023-05-16T10:52:08;14.40;1.00
6270;DHT22;3168;51.684;6.954;2023-05-16T10:54:35;14.50;1.00
6270;DHT22;3168;51.684;6.954;2023-05-16T10:57:03;13.70;1.00
6270;DHT22;3168;51.684;6.954;2023-05-16T10:59:28;13.10;1.00
6270;DHT22;3168;51.684;6.954;2023-05-16T11:01:54;12.80;1.00
6270;DHT22;3168;51.684;6.954;2023-05-16T11:04:20;12.90;1.00
6270;DHT22;3168;51.684;6.954;2023-05-16T11:06:49;13.00;1.00
6270;DHT22;3168;51.684;6.954;2023-05-16T11:09:20;13.40;1.00
6270;DHT22;3168;51.684;6.954;2023-05-16T11:11:46;13.70;1.00
6270;DHT22;3168;51.684;6.954;2023-05-16T11:14:35;14.10;1.00
6270;DHT22;3168;51.684;6.954;2023-05-16T11:17:07;14.50;1.00
6270;DHT22;3168;51.684;6.954;2023-05-16T11:19:50;14.60;1.00
6270;DHT22;3168;51.684;6.954;2023-05-16T11:22:23;14.40;1.00
6270;DHT22;3168;51.684;6.954;2023-05-16T11:24:51;14.50;1.00
6270;DHT22;3168;51.684;6.954;2023-05-16T11:27:43;14.50;1.00
6270;DHT22;3168;51.684;6.954;2023-05-16T11:30:13;14.40;1.00
6270;DHT22;3168;51.684;6.954;2023-05-16T11:32:40;14.70;1.00
6270;DHT22;3168;51.684;6.954;2023-05-16T11:35:05;14.80;1.00
6270;DHT22;3168;51.684;6.954;2023-05-16T11:37:31;14.70;1.00
6270;DHT22;3168;51.684;6.954;2023-05-16T11:39:59;14.40;1.00
6270;DHT22;3168;51.684;6.954;2023-05-16T11:42:27;14.70;1.00
6270;DHT22;3168;51.684;6.954;2023-05-16T11:45:02;15.10;1.00
6270;DHT22;3168;51.684;6.954;2023-05-16T11:47:16;15.00;1.00
6270;DHT22;3168;51.684;6.954;2023-05-16T11:49:42;14.40;1.00
6270;DHT22;3168;51.684;6.954;2023-05-16T11:52:08;14.30;1.00
6270;DHT22;3168;51.684;6.954;2023-05-16T11:54:34;14.40;1.00
6270;DHT22;3168;51.684;6.954;2023-05-16T11:57:01;14.30;1.00
6270;DHT22;3168;51.684;6.954;2023-05-16T11:59:26;14.20;1.00
6270;DHT22;3168;51.684;6.954;2023-05-16T12:01:52;14.70;1.00
6270;DHT22;3168;51.684;6.954;2023-05-16T12:04:18;14.50;1.00
6270;DHT22;3168;51.684;6.954;2023-05-16T12:06:44;14.10;1.00
6270;DHT22;3168;51.684;6.954;2023-05-16T12:09:11;14.10;1.00
6270;DHT22;3168;51.684;6.954;2023-05-16T12:11:37;14.10;1.00
6270;DHT22;3168;51.684;6.954;2023-05-16T12:14:03;13.80;1.00
6270;DHT22;3168;51.684;6.954;2023-05-16T12:16:28;13.70;1.00
6270;DHT22;3168;51.684;6.954;2023-05-16T12:18:54;13.50;1.00
6270;DHT22;3168;51.684;6.954;2023-05-16T12:21:20;13.90;1.00
6270;DHT22;3168;51.684;6.954;2023-05-16T12:23:46;14.30;1.00
6270;DHT22;3168;51.684;6.954;2023-05-16T12:26:12;14.70;1.00
6270;DHT22;3168;51.684;6.954;2023-05-16T12:28:37;15.10;1.00
6270;DHT22;3168;51.684;6.954;2023-05-16T12:31:10;15.40;1.00
6270;DHT22;3168;51.684;6.954;2023-05-16T12:33:29;15.60;1.00
6270;DHT22;3168;51.684;6.954;2023-05-16T12:35:55;15.30;1.00
6270;DHT22;3168;51.684;6.954;2023-05-16T12:38:21;15.20;1.00
6270;DHT22;3168;51.684;6.954;2023-05-16T12:40:47;15.10;1.00
6270;DHT22;3168;51.684;6.954;2023-05-16T12:43:15;15.20;1.00
6270;DHT22;3168;51.684;6.954;2023-05-16T12:45:40;15.20;1.00
6270;DHT22;3168;51.684;6.954;2023-05-16T12:48:10;15.50;1.00
6270;DHT22;3168;51.684;6.954;2023-05-16T12:50:37;15.80;1.00
6270;DHT22;3168;51.684;6.954;2023-05-16T12:53:02;16.00;1.00
6270;DHT22;3168;51.684;6.954;2023-05-16T12:55:28;16.30;1.00
6270;DHT22;3168;51.684;6.954;2023-05-16T12:57:54;16.40;1.00
6270;DHT22;3168;51.684;6.954;2023-05-16T13:00:19;16.40;1.00
6270;DHT22;3168;51.684;6.954;2023-05-16T13:02:46;16.60;1.00
6270;DHT22;3168;51.684;6.954;2023-05-16T13:05:11;16.30;1.00
6270;DHT22;3168;51.684;6.954;2023-05-16T13:07:37;16.20;1.00
6270;DHT22;3168;51.684;6.954;2023-05-16T13:10:03;16.20;1.00
6270;DHT22;3168;51.684;6.954;2023-05-16T13:12:29;16.40;1.00
6270;DHT22;3168;51.684;6.954;2023-05-16T13:14:55;16.70;1.00
6270;DHT22;3168;51.684;6.954;2023-05-16T13:17:21;16.80;1.00
6270;DHT22;3168;51.684;6.954;2023-05-16T13:19:47;16.90;1.00
6270;DHT22;3168;51.684;6.954;2023-05-16T13:22:13;16.90;1.00
6270;DHT22;3168;51.684;6.954;2023-05-16T13:24:39;16.70;1.00
6270;DHT22;3168;51.684;6.954;2023-05-16T13:27:05;16.50;1.00
6270;DHT22;3168;51.684;6.954;2023-05-16T13:29:30;16.40;1.00
6270;DHT22;3168;51.684;6.954;2023-05-16T13:31:56;16.40;1.00
6270;DHT22;3168;51.684;6.954;2023-05-16T13:34:22;16.40;1.00
6270;DHT22;3168;51.684;6.954;2023-05-16T13:36:48;16.40;1.00
6270;DHT22;3168;51.684;6.954;2023-05-16T13:39:14;15.80;1.00
6270;DHT22;3168;51.684;6.954;2023-05-16T13:41:39;15.40;1.00
6270;DHT22;3168;51.684;6.954;2023-05-16T13:44:05;15.20;1.00
6270;DHT22;3168;51.684;6.954;2023-05-16T13:46:31;14.90;1.00
6270;DHT22;3168;51.684;6.954;2023-05-16T13:48:57;14.80;1.00
6270;DHT22;3168;51.684;6.954;2023-05-16T13:51:23;14.80;1.00
6270;DHT22;3168;51.684;6.954;2023-05-16T13:53:49;14.70;1.00
6270;DHT22;3168;51.684;6.954;2023-05-16T13:56:15;14.50;1.00
6270;DHT22;3168;51.684;6.954;2023-05-16T13:58:41;14.70;1.00
6270;DHT22;3168;51.684;6.954;2023-05-16T14:01:06;14.70;1.00
6270;DHT22;3168;51.684;6.954;2023-05-16T14:03:32;14.70;1.00
6270;DHT22;3168;51.684;6.954;2023-05-16T14:05:58;14.80;1.00
6270;DHT22;3168;51.684;6.954;2023-05-16T14:08:24;14.70;1.00
6270;DHT22;3168;51.684;6.954;2023-05-16T14:10:50;14.70;1.00
6270;DHT22;3168;51.684;6.954;2023-05-16T14:13:15;14.50;1.00
6270;DHT22;3168;51.684;6.954;2023-05-16T14:15:41;14.40;1.00
6270;DHT22;3168;51.684;6.954;2023-05-16T14:18:07;14.30;1.00
6270;DHT22;3168;51.684;6.954;2023-05-16T14:20:33;14.30;1.00
6270;DHT22;3168;51.684;6.954;2023-05-16T14:22:59;14.10;1.00
6270;DHT22;3168;51.684;6.954;2023-05-16T14:25:25;13.90;1.00
6270;DHT22;3168;51.684;6.954;2023-05-16T14:27:50;13.90;1.00
6270;DHT22;3168;51.684;6.954;2023-05-16T14:30:16;13.90;1.00
6270;DHT22;3168;51.684;6.954;2023-05-16T14:32:42;13.60;1.00
6270;DHT22;3168;51.684;6.954;2023-05-16T14:35:08;13.70;1.00
6270;DHT22;3168;51.684;6.954;2023-05-16T14:37:34;13.80;1.00
6270;DHT22;3168;51.684;6.954;2023-05-16T14:40:00;13.80;1.00
6270;DHT22;3168;51.684;6.954;2023-05-16T14:42:26;13.60;1.00
6270;DHT22;3168;51.684;6.954;2023-05-16T14:44:52;13.70;1.00
6270;DHT22;3168;51.684;6.954;2023-05-16T14:47:18;13.90;1.00
6270;DHT22;3168;51.684;6.954;2023-05-16T14:49:43;13.90;1.00
6270;DHT22;3168;51.684;6.954;2023-05-16T14:52:09;13.70;1.00
6270;DHT22;3168;51.684;6.954;2023-05-16T14:54:35;13.50;1.00
6270;DHT22;3168;51.684;6.954;2023-05-16T14:57:01;13.40;1.00
6270;DHT22;3168;51.684;6.954;2023-05-16T14:59:27;13.40;1.00
6270;DHT22;3168;51.684;6.954;2023-05-16T15:01:52;13.30;1.00
6270;DHT22;3168;51.684;6.954;2023-05-16T15:04:18;13.40;1.00
6270;DHT22;3168;51.684;6.954;2023-05-16T15:06:44;13.60;1.00
6270;DHT22;3168;51.684;6.954;2023-05-16T15:09:10;13.50;1.00
6270;DHT22;3168;51.684;6.954;2023-05-16T15:11:36;13.50;1.00
6270;DHT22;3168;51.684;6.954;2023-05-16T15:14:02;13.60;1.00
6270;DHT22;3168;51.684;6.954;2023-05-16T15:16:28;13.60;1.00
6270;DHT22;3168;51.684;6.954;2023-05-16T15:18:54;14.30;1.00
6270;DHT22;3168;51.684;6.954;2023-05-16T15:21:20;14.30;1.00
6270;DHT22;3168;51.684;6.954;2023-05-16T15:23:46;14.00;1.00
6270;DHT22;3168;51.684;6.954;2023-05-16T15:26:11;14.10;1.00
6270;DHT22;3168;51.684;6.954;2023-05-16T15:28:37;14.60;1.00
6270;DHT22;3168;51.684;6.954;2023-05-16T15:31:03;14.50;1.00
6270;DHT22;3168;51.684;6.954;2023-05-16T15:33:29;14.60;1.00
6270;DHT22;3168;51.684;6.954;2023-05-16T15:35:55;14.60;1.00
6270;DHT22;3168;51.684;6.954;2023-05-16T15:38:21;14.60;1.00
6270;DHT22;3168;51.684;6.954;2023-05-16T15:40:47;14.50;1.00
6270;DHT22;3168;51.684;6.954;2023-05-16T15:43:12;14.10;1.00
6270;DHT22;3168;51.684;6.954;2023-05-16T15:45:38;14.20;1.00
6270;DHT22;3168;51.684;6.954;2023-05-16T15:48:04;14.40;1.00
6270;DHT22;3168;51.684;6.954;2023-05-16T15:50:30;14.40;1.00
6270;DHT22;3168;51.684;6.954;2023-05-16T15:52:56;14.30;1.00
6270;DHT22;3168;51.684;6.954;2023-05-16T15:55:22;14.20;1.00
6270;DHT22;3168;51.684;6.954;2023-05-16T15:57:48;14.10;1.00
6270;DHT22;3168;51.684;6.954;2023-05-16T16:00:14;13.80;1.00
6270;DHT22;3168;51.684;6.954;2023-05-16T16:02:40;13.70;1.00
6270;DHT22;3168;51.684;6.954;2023-05-16T16:05:07;13.70;1.00
6270;DHT22;3168;51.684;6.954;2023-05-16T16:07:33;13.60;1.00
6270;DHT22;3168;51.684;6.954;2023-05-16T16:09:59;13.60;1.00
6270;DHT22;3168;51.684;6.954;2023-05-16T16:12:27;13.60;1.00
6270;DHT22;3168;51.684;6.954;2023-05-16T16:14:50;13.70;1.00
6270;DHT22;3168;51.684;6.954;2023-05-16T16:17:16;13.70;1.00
6270;DHT22;3168;51.684;6.954;2023-05-16T16:19:42;13.70;1.00